sensor_id;sensor_type;location;lat;lon;timestamp;pressure;altitude;pressure_sealevel;temperature
72054;BMP280;59918;51.280;7.950;2022-10-16T00:00:35;97617.69;;;13.89
72054;BMP280;59918;51.280;7.950;2022-10-16T00:03:03;97607.50;;;13.83
72054;BMP280;59918;51.280;7.950;2022-10-16T00:05:29;97607.50;;;13.83
72054;BMP280;59918;51.280;7.950;2022-10-16T00:07:54;97612.09;;;13.81
72054;BMP280;59918;51.280;7.950;2022-10-16T00:10:19;97609.75;;;13.80
72054;BMP280;59918;51.280;7.950;2022-10-16T00:12:45;97608.28;;;13.84
72054;BMP280;59918;51.280;7.950;2022-10-16T00:15:10;97606.25;;;13.85
72054;BMP280;59918;51.280;7.950;2022-10-16T00:17:35;97614.91;;;13.91
72054;BMP280;59918;51.280;7.950;2022-10-16T00:20:00;97620.41;;;13.94
72054;BMP280;59918;51.280;7.950;2022-10-16T00:22:26;97621.50;;;13.98
72054;BMP280;59918;51.280;7.950;2022-10-16T00:24:51;97627.28;;;14.00
72054;BMP280;59918;51.280;7.950;2022-10-16T00:27:16;97619.50;;;14.00
72054;BMP280;59918;51.280;7.950;2022-10-16T00:29:42;97618.25;;;14.03
72054;BMP280;59918;51.280;7.950;2022-10-16T00:32:07;97621.97;;;14.07
72054;BMP280;59918;51.280;7.950;2022-10-16T00:34:32;97614.97;;;14.07
72054;BMP280;59918;51.280;7.950;2022-10-16T00:36:58;97631.75;;;14.05
72054;BMP280;59918;51.280;7.950;2022-10-16T00:39:23;97629.16;;;14.05
72054;BMP280;59918;51.280;7.950;2022-10-16T00:41:48;97636.47;;;14.08
72054;BMP280;59918;51.280;7.950;2022-10-16T00:49:50;97632.97;;;14.14
72054;BMP280;59918;51.280;7.950;2022-10-16T00:52:16;97641.50;;;14.14
72054;BMP280;59918;51.280;7.950;2022-10-16T00:54:42;97638.81;;;14.09
72054;BMP280;59918;51.280;7.950;2022-10-16T00:57:07;97635.59;;;14.02
72054;BMP280;59918;51.280;7.950;2022-10-16T00:59:39;97629.72;;;13.95
72054;BMP280;59918;51.280;7.950;2022-10-16T01:02:06;97628.84;;;13.90
72054;BMP280;59918;51.280;7.950;2022-10-16T01:04:35;97619.72;;;13.87
72054;BMP280;59918;51.280;7.950;2022-10-16T01:20:35;97647.41;;;13.64
72054;BMP280;59918;51.280;7.950;2022-10-16T01:28:36;97627.97;;;13.62
72054;BMP280;59918;51.280;7.950;2022-10-16T01:31:03;97630.00;;;13.60
72054;BMP280;59918;51.280;7.950;2022-10-16T01:33:39;97625.03;;;13.58
72054;BMP280;59918;51.280;7.950;2022-10-16T01:36:17;97640.00;;;13.56
72054;BMP280;59918;51.280;7.950;2022-10-16T01:38:46;97644.16;;;13.57
72054;BMP280;59918;51.280;7.950;2022-10-16T01:41:18;97656.59;;;13.60
72054;BMP280;59918;51.280;7.950;2022-10-16T01:44:05;97655.28;;;13.58
72054;BMP280;59918;51.280;7.950;2022-10-16T01:46:32;97655.06;;;13.59
72054;BMP280;59918;51.280;7.950;2022-10-16T01:49:00;97655.84;;;13.60
72054;BMP280;59918;51.280;7.950;2022-10-16T01:51:28;97652.81;;;13.63
72054;BMP280;59918;51.280;7.950;2022-10-16T01:53:56;97653.81;;;13.62
72054;BMP280;59918;51.280;7.950;2022-10-16T01:56:24;97649.66;;;13.61
72054;BMP280;59918;51.280;7.950;2022-10-16T01:59:09;97639.22;;;13.56
72054;BMP280;59918;51.280;7.950;2022-10-16T02:01:39;97647.31;;;13.59
72054;BMP280;59918;51.280;7.950;2022-10-16T02:04:15;97639.00;;;13.57
72054;BMP280;59918;51.280;7.950;2022-10-16T02:06:41;97650.56;;;13.55
72054;BMP280;59918;51.280;7.950;2022-10-16T02:09:07;97647.44;;;13.53
72054;BMP280;59918;51.280;7.950;2022-10-16T02:11:32;97640.47;;;13.53
72054;BMP280;59918;51.280;7.950;2022-10-16T02:14:04;97641.22;;;13.54
72054;BMP280;59918;51.280;7.950;2022-10-16T02:16:35;97643.72;;;13.49
72054;BMP280;59918;51.280;7.950;2022-10-16T02:19:00;97651.13;;;13.46
72054;BMP280;59918;51.280;7.950;2022-10-16T02:21:29;97672.00;;;13.44
72054;BMP280;59918;51.280;7.950;2022-10-16T02:26:52;97672.91;;;13.38
72054;BMP280;59918;51.280;7.950;2022-10-16T02:29:24;97673.81;;;13.32
72054;BMP280;59918;51.280;7.950;2022-10-16T02:31:55;97679.63;;;13.28
72054;BMP280;59918;51.280;7.950;2022-10-16T02:34:23;97679.28;;;13.24
72054;BMP280;59918;51.280;7.950;2022-10-16T02:36:51;97684.88;;;13.21
72054;BMP280;59918;51.280;7.950;2022-10-16T02:39:18;97678.50;;;13.24
72054;BMP280;59918;51.280;7.950;2022-10-16T02:41:44;97673.34;;;13.24
72054;BMP280;59918;51.280;7.950;2022-10-16T02:44:10;97669.41;;;13.21
72054;BMP280;59918;51.280;7.950;2022-10-16T02:46:35;97670.41;;;13.20
72054;BMP280;59918;51.280;7.950;2022-10-16T02:49:00;97663.44;;;13.21
72054;BMP280;59918;51.280;7.950;2022-10-16T02:51:25;97658.28;;;13.21
72054;BMP280;59918;51.280;7.950;2022-10-16T02:53:51;97674.69;;;13.26
72054;BMP280;59918;51.280;7.950;2022-10-16T02:56:16;97670.66;;;13.30
72054;BMP280;59918;51.280;7.950;2022-10-16T02:58:41;97678.97;;;13.32
72054;BMP280;59918;51.280;7.950;2022-10-16T03:01:07;97682.56;;;13.31
72054;BMP280;59918;51.280;7.950;2022-10-16T03:03:32;97686.38;;;13.29
72054;BMP280;59918;51.280;7.950;2022-10-16T03:05:57;97667.16;;;13.25
72054;BMP280;59918;51.280;7.950;2022-10-16T03:08:22;97677.28;;;13.26
72054;BMP280;59918;51.280;7.950;2022-10-16T03:10:48;97676.84;;;13.29
72054;BMP280;59918;51.280;7.950;2022-10-16T03:13:13;97668.63;;;13.32
72054;BMP280;59918;51.280;7.950;2022-10-16T03:15:40;97663.81;;;13.36
72054;BMP280;59918;51.280;7.950;2022-10-16T03:18:06;97676.06;;;13.40
72054;BMP280;59918;51.280;7.950;2022-10-16T03:20:31;97678.75;;;13.45
72054;BMP280;59918;51.280;7.950;2022-10-16T03:22:56;97681.44;;;13.50
72054;BMP280;59918;51.280;7.950;2022-10-16T03:25:22;97673.25;;;13.53
72054;BMP280;59918;51.280;7.950;2022-10-16T03:27:47;97679.56;;;13.57
72054;BMP280;59918;51.280;7.950;2022-10-16T03:30:12;97675.50;;;13.61
72054;BMP280;59918;51.280;7.950;2022-10-16T03:32:37;97657.50;;;13.66
72054;BMP280;59918;51.280;7.950;2022-10-16T03:35:03;97648.84;;;13.72
72054;BMP280;59918;51.280;7.950;2022-10-16T03:37:28;97647.84;;;13.73
72054;BMP280;59918;51.280;7.950;2022-10-16T03:39:54;97647.59;;;13.74
72054;BMP280;59918;51.280;7.950;2022-10-16T03:42:19;97661.34;;;13.75
72054;BMP280;59918;51.280;7.950;2022-10-16T03:44:44;97638.63;;;13.77
72054;BMP280;59918;51.280;7.950;2022-10-16T03:47:09;97642.78;;;13.78
72054;BMP280;59918;51.280;7.950;2022-10-16T03:49:35;97643.00;;;13.76
72054;BMP280;59918;51.280;7.950;2022-10-16T03:52:00;97637.84;;;13.76
72054;BMP280;59918;51.280;7.950;2022-10-16T03:54:25;97633.91;;;13.74
72054;BMP280;59918;51.280;7.950;2022-10-16T03:56:50;97635.94;;;13.72
72054;BMP280;59918;51.280;7.950;2022-10-16T03:59:16;97618.53;;;13.67
72054;BMP280;59918;51.280;7.950;2022-10-16T04:01:41;97624.47;;;13.68
72054;BMP280;59918;51.280;7.950;2022-10-16T04:04:06;97642.22;;;13.64
72054;BMP280;59918;51.280;7.950;2022-10-16T04:06:31;97647.88;;;13.61
72054;BMP280;59918;51.280;7.950;2022-10-16T04:08:57;97639.56;;;13.59
72054;BMP280;59918;51.280;7.950;2022-10-16T04:11:22;97643.59;;;13.55
72054;BMP280;59918;51.280;7.950;2022-10-16T04:13:48;97653.16;;;13.55
72054;BMP280;59918;51.280;7.950;2022-10-16T04:16:13;97674.59;;;13.55
72054;BMP280;59918;51.280;7.950;2022-10-16T04:18:38;97670.69;;;13.53
72054;BMP280;59918;51.280;7.950;2022-10-16T04:21:04;97671.66;;;13.52
72054;BMP280;59918;51.280;7.950;2022-10-16T04:23:30;97673.13;;;13.48
72054;BMP280;59918;51.280;7.950;2022-10-16T04:25:55;97696.38;;;13.48
72054;BMP280;59918;51.280;7.950;2022-10-16T04:28:20;97696.94;;;13.50
72054;BMP280;59918;51.280;7.950;2022-10-16T04:30:46;97700.88;;;13.52
72054;BMP280;59918;51.280;7.950;2022-10-16T04:33:11;97693.94;;;13.53
72054;BMP280;59918;51.280;7.950;2022-10-16T04:35:37;97682.47;;;13.49
72054;BMP280;59918;51.280;7.950;2022-10-16T04:38:02;97691.69;;;13.45
72054;BMP280;59918;51.280;7.950;2022-10-16T04:40:27;97699.63;;;13.44
72054;BMP280;59918;51.280;7.950;2022-10-16T04:42:52;97705.03;;;13.42
72054;BMP280;59918;51.280;7.950;2022-10-16T04:45:17;97691.75;;;13.39
72054;BMP280;59918;51.280;7.950;2022-10-16T04:47:43;97689.75;;;13.41
72054;BMP280;59918;51.280;7.950;2022-10-16T04:50:08;97695.94;;;13.40
72054;BMP280;59918;51.280;7.950;2022-10-16T04:52:33;97693.56;;;13.38
72054;BMP280;59918;51.280;7.950;2022-10-16T04:54:59;97706.47;;;13.38
72054;BMP280;59918;51.280;7.950;2022-10-16T04:57:24;97710.88;;;13.38
72054;BMP280;59918;51.280;7.950;2022-10-16T04:59:49;97717.38;;;13.40
72054;BMP280;59918;51.280;7.950;2022-10-16T05:02:14;97728.63;;;13.46
72054;BMP280;59918;51.280;7.950;2022-10-16T05:04:40;97712.44;;;13.50
72054;BMP280;59918;51.280;7.950;2022-10-16T05:07:05;97712.00;;;13.53
72054;BMP280;59918;51.280;7.950;2022-10-16T05:09:30;97712.00;;;13.53
72054;BMP280;59918;51.280;7.950;2022-10-16T05:11:55;97713.47;;;13.49
72054;BMP280;59918;51.280;7.950;2022-10-16T05:14:21;97712.34;;;13.45
72054;BMP280;59918;51.280;7.950;2022-10-16T05:16:46;97713.22;;;13.39
72054;BMP280;59918;51.280;7.950;2022-10-16T05:19:11;97713.22;;;13.39
72054;BMP280;59918;51.280;7.950;2022-10-16T05:21:36;97704.13;;;13.37
72054;BMP280;59918;51.280;7.950;2022-10-16T05:24:02;97729.16;;;13.36
72054;BMP280;59918;51.280;7.950;2022-10-16T05:26:27;97731.53;;;13.38
72054;BMP280;59918;51.280;7.950;2022-10-16T05:28:53;97748.94;;;13.42
72054;BMP280;59918;51.280;7.950;2022-10-16T05:31:18;97740.50;;;13.47
72054;BMP280;59918;51.280;7.950;2022-10-16T05:33:43;97730.88;;;13.53
72054;BMP280;59918;51.280;7.950;2022-10-16T05:36:09;97729.19;;;13.59
72054;BMP280;59918;51.280;7.950;2022-10-16T05:38:35;97725.38;;;13.61
72054;BMP280;59918;51.280;7.950;2022-10-16T05:41:05;97720.41;;;13.60
72054;BMP280;59918;51.280;7.950;2022-10-16T05:43:31;97728.38;;;13.58
72054;BMP280;59918;51.280;7.950;2022-10-16T05:46:04;97737.38;;;13.56
72054;BMP280;59918;51.280;7.950;2022-10-16T05:48:30;97741.97;;;13.54
72054;BMP280;59918;51.280;7.950;2022-10-16T05:50:59;97739.63;;;13.52
72054;BMP280;59918;51.280;7.950;2022-10-16T05:53:27;97755.94;;;13.53
72054;BMP280;59918;51.280;7.950;2022-10-16T05:55:53;97743.22;;;13.51
72054;BMP280;59918;51.280;7.950;2022-10-16T05:58:18;97751.09;;;13.45
72054;BMP280;59918;51.280;7.950;2022-10-16T06:00:44;97762.75;;;13.48
72054;BMP280;59918;51.280;7.950;2022-10-16T06:03:09;97759.97;;;13.49
72054;BMP280;59918;51.280;7.950;2022-10-16T06:05:34;97762.31;;;13.50
72054;BMP280;59918;51.280;7.950;2022-10-16T06:07:59;97768.03;;;13.52
72054;BMP280;59918;51.280;7.950;2022-10-16T06:10:24;97785.34;;;13.52
72054;BMP280;59918;51.280;7.950;2022-10-16T06:12:50;97786.03;;;13.59
72054;BMP280;59918;51.280;7.950;2022-10-16T06:15:15;97794.59;;;13.71
72054;BMP280;59918;51.280;7.950;2022-10-16T06:17:40;97783.91;;;13.79
72054;BMP280;59918;51.280;7.950;2022-10-16T06:20:05;97784.94;;;13.89
72054;BMP280;59918;51.280;7.950;2022-10-16T06:22:33;97793.03;;;13.92
72054;BMP280;59918;51.280;7.950;2022-10-16T06:24:58;97800.00;;;13.92
72054;BMP280;59918;51.280;7.950;2022-10-16T06:27:24;97805.75;;;13.94
72054;BMP280;59918;51.280;7.950;2022-10-16T06:29:49;97799.69;;;14.00
72054;BMP280;59918;51.280;7.950;2022-10-16T06:32:14;97802.16;;;14.06
72054;BMP280;59918;51.280;7.950;2022-10-16T06:34:39;97801.06;;;14.14
72054;BMP280;59918;51.280;7.950;2022-10-16T06:37:04;97805.41;;;14.13
72054;BMP280;59918;51.280;7.950;2022-10-16T06:39:30;97807.56;;;14.16
72054;BMP280;59918;51.280;7.950;2022-10-16T06:41:55;97799.91;;;14.21
72054;BMP280;59918;51.280;7.950;2022-10-16T06:44:20;97809.94;;;14.18
72054;BMP280;59918;51.280;7.950;2022-10-16T06:46:45;97801.34;;;14.17
72054;BMP280;59918;51.280;7.950;2022-10-16T06:49:11;97820.16;;;14.24
72054;BMP280;59918;51.280;7.950;2022-10-16T06:51:36;97818.91;;;14.26
72054;BMP280;59918;51.280;7.950;2022-10-16T06:54:01;97827.44;;;14.27
72054;BMP280;59918;51.280;7.950;2022-10-16T06:56:27;97827.66;;;14.37
72054;BMP280;59918;51.280;7.950;2022-10-16T06:58:53;97826.88;;;14.48
72054;BMP280;59918;51.280;7.950;2022-10-16T07:01:20;97840.59;;;14.59
72054;BMP280;59918;51.280;7.950;2022-10-16T07:03:46;97834.59;;;14.70
72054;BMP280;59918;51.280;7.950;2022-10-16T07:06:15;97842.78;;;14.79
72054;BMP280;59918;51.280;7.950;2022-10-16T07:08:42;97855.16;;;14.88
72054;BMP280;59918;51.280;7.950;2022-10-16T07:11:10;97852.66;;;14.93
72054;BMP280;59918;51.280;7.950;2022-10-16T07:13:37;97868.19;;;14.93
72054;BMP280;59918;51.280;7.950;2022-10-16T07:18:31;97869.22;;;14.92
72054;BMP280;59918;51.280;7.950;2022-10-16T07:21:12;97868.75;;;14.95
72054;BMP280;59918;51.280;7.950;2022-10-16T07:23:38;97875.38;;;15.02
72054;BMP280;59918;51.280;7.950;2022-10-16T07:26:04;97878.06;;;15.07
72054;BMP280;59918;51.280;7.950;2022-10-16T07:28:30;97878.38;;;15.11
72054;BMP280;59918;51.280;7.950;2022-10-16T07:30:55;97884.59;;;15.21
72054;BMP280;59918;51.280;7.950;2022-10-16T07:33:21;97895.47;;;15.34
72054;BMP280;59918;51.280;7.950;2022-10-16T07:35:53;97908.13;;;15.31
72054;BMP280;59918;51.280;7.950;2022-10-16T07:38:19;97916.81;;;15.25
72054;BMP280;59918;51.280;7.950;2022-10-16T07:40:45;97910.72;;;15.20
72054;BMP280;59918;51.280;7.950;2022-10-16T07:43:11;97919.97;;;15.16
72054;BMP280;59918;51.280;7.950;2022-10-16T07:45:40;97917.72;;;15.19
72054;BMP280;59918;51.280;7.950;2022-10-16T07:48:11;97928.28;;;15.29
72054;BMP280;59918;51.280;7.950;2022-10-16T07:50:36;97926.94;;;15.54
72054;BMP280;59918;51.280;7.950;2022-10-16T07:53:01;97931.47;;;15.75
72054;BMP280;59918;51.280;7.950;2022-10-16T07:55:26;97927.34;;;16.06
72054;BMP280;59918;51.280;7.950;2022-10-16T07:57:51;97935.09;;;16.18
72054;BMP280;59918;51.280;7.950;2022-10-16T08:00:19;97936.81;;;16.29
72054;BMP280;59918;51.280;7.950;2022-10-16T08:02:44;97942.41;;;16.37
72054;BMP280;59918;51.280;7.950;2022-10-16T08:05:09;97947.13;;;16.40
72054;BMP280;59918;51.280;7.950;2022-10-16T08:07:35;97939.81;;;16.37
72054;BMP280;59918;51.280;7.950;2022-10-16T08:10:00;97947.28;;;16.50
72054;BMP280;59918;51.280;7.950;2022-10-16T08:12:25;97943.47;;;16.74
72054;BMP280;59918;51.280;7.950;2022-10-16T08:14:51;97950.25;;;17.12
72054;BMP280;59918;51.280;7.950;2022-10-16T08:17:16;97945.44;;;17.42
72054;BMP280;59918;51.280;7.950;2022-10-16T08:19:50;97945.75;;;17.45
72054;BMP280;59918;51.280;7.950;2022-10-16T08:22:15;97967.06;;;17.26
72054;BMP280;59918;51.280;7.950;2022-10-16T08:24:40;97971.19;;;17.22
72054;BMP280;59918;51.280;7.950;2022-10-16T08:27:06;97976.63;;;17.42
72054;BMP280;59918;51.280;7.950;2022-10-16T08:29:32;97977.63;;;17.62
72054;BMP280;59918;51.280;7.950;2022-10-16T08:31:57;97975.13;;;17.93
72054;BMP280;59918;51.280;7.950;2022-10-16T08:34:23;97986.25;;;18.10
72054;BMP280;59918;51.280;7.950;2022-10-16T08:36:48;97975.63;;;18.16
72054;BMP280;59918;51.280;7.950;2022-10-16T08:39:13;97979.94;;;18.06
72054;BMP280;59918;51.280;7.950;2022-10-16T08:47:01;97979.69;;;18.33
72054;BMP280;59918;51.280;7.950;2022-10-16T08:49:27;97996.16;;;18.39
72054;BMP280;59918;51.280;7.950;2022-10-16T08:51:55;97982.97;;;18.86
72054;BMP280;59918;51.280;7.950;2022-10-16T08:54:36;97984.56;;;19.33
72054;BMP280;59918;51.280;7.950;2022-10-16T08:57:19;97990.84;;;19.37
72054;BMP280;59918;51.280;7.950;2022-10-16T08:59:44;97993.06;;;19.70
72054;BMP280;59918;51.280;7.950;2022-10-16T09:02:23;97995.69;;;19.79
72054;BMP280;59918;51.280;7.950;2022-10-16T09:07:32;97999.72;;;20.31
72054;BMP280;59918;51.280;7.950;2022-10-16T09:13:02;98005.69;;;19.97
72054;BMP280;59918;51.280;7.950;2022-10-16T09:18:29;98014.06;;;20.24
72054;BMP280;59918;51.280;7.950;2022-10-16T09:21:09;98016.72;;;21.08
72054;BMP280;59918;51.280;7.950;2022-10-16T09:23:38;98019.25;;;21.52
72054;BMP280;59918;51.280;7.950;2022-10-16T09:26:09;98010.59;;;22.14
72054;BMP280;59918;51.280;7.950;2022-10-16T09:28:34;98002.31;;;22.35
72054;BMP280;59918;51.280;7.950;2022-10-16T09:31:00;98017.81;;;22.27
72054;BMP280;59918;51.280;7.950;2022-10-16T09:33:29;98015.75;;;22.57
72054;BMP280;59918;51.280;7.950;2022-10-16T09:35:56;98014.75;;;22.86
72054;BMP280;59918;51.280;7.950;2022-10-16T09:38:23;98031.13;;;22.69
72054;BMP280;59918;51.280;7.950;2022-10-16T09:40:49;98035.34;;;22.70
72054;BMP280;59918;51.280;7.950;2022-10-16T09:43:24;98042.03;;;22.85
72054;BMP280;59918;51.280;7.950;2022-10-16T09:45:55;98043.88;;;22.47
72054;BMP280;59918;51.280;7.950;2022-10-16T09:48:20;98039.75;;;22.74
72054;BMP280;59918;51.280;7.950;2022-10-16T09:50:58;98057.31;;;21.88
72054;BMP280;59918;51.280;7.950;2022-10-16T09:53:47;98058.03;;;20.91
72054;BMP280;59918;51.280;7.950;2022-10-16T09:56:25;98060.06;;;20.49
72054;BMP280;59918;51.280;7.950;2022-10-16T09:58:52;98057.19;;;21.50
72054;BMP280;59918;51.280;7.950;2022-10-16T10:01:18;98047.13;;;21.76
72054;BMP280;59918;51.280;7.950;2022-10-16T10:03:44;98038.22;;;23.52
72054;BMP280;59918;51.280;7.950;2022-10-16T10:06:27;98024.28;;;25.03
72054;BMP280;59918;51.280;7.950;2022-10-16T10:11:40;98037.56;;;26.04
72054;BMP280;59918;51.280;7.950;2022-10-16T10:14:16;98024.19;;;26.01
72054;BMP280;59918;51.280;7.950;2022-10-16T10:16:42;98031.28;;;26.84
72054;BMP280;59918;51.280;7.950;2022-10-16T10:19:22;98026.75;;;27.06
72054;BMP280;59918;51.280;7.950;2022-10-16T10:21:48;98030.34;;;27.10
72054;BMP280;59918;51.280;7.950;2022-10-16T10:24:15;98028.66;;;27.44
72054;BMP280;59918;51.280;7.950;2022-10-16T10:27:05;98024.88;;;26.55
72054;BMP280;59918;51.280;7.950;2022-10-16T10:43:30;98029.28;;;26.46
72054;BMP280;59918;51.280;7.950;2022-10-16T10:46:11;98037.03;;;25.67
72054;BMP280;59918;51.280;7.950;2022-10-16T10:48:45;98035.19;;;24.28
72054;BMP280;59918;51.280;7.950;2022-10-16T10:51:19;98036.72;;;25.56
72054;BMP280;59918;51.280;7.950;2022-10-16T10:54:13;98029.91;;;26.86
72054;BMP280;59918;51.280;7.950;2022-10-16T10:56:52;98018.75;;;28.30
72054;BMP280;59918;51.280;7.950;2022-10-16T11:00:24;98021.16;;;29.19
72054;BMP280;59918;51.280;7.950;2022-10-16T11:05:56;98019.88;;;28.63
72054;BMP280;59918;51.280;7.950;2022-10-16T11:08:32;98022.59;;;27.99
72054;BMP280;59918;51.280;7.950;2022-10-16T11:11:02;98040.16;;;27.48
72054;BMP280;59918;51.280;7.950;2022-10-16T11:13:32;98030.13;;;28.47
72054;BMP280;59918;51.280;7.950;2022-10-16T11:16:01;98020.75;;;28.83
72054;BMP280;59918;51.280;7.950;2022-10-16T11:18:42;98028.44;;;27.32
72054;BMP280;59918;51.280;7.950;2022-10-16T11:21:13;98037.09;;;26.03
72054;BMP280;59918;51.280;7.950;2022-10-16T11:23:48;98038.88;;;24.95
72054;BMP280;59918;51.280;7.950;2022-10-16T11:26:20;98030.63;;;26.57
72054;BMP280;59918;51.280;7.950;2022-10-16T11:28:50;98021.31;;;27.03
72054;BMP280;59918;51.280;7.950;2022-10-16T11:31:27;98050.63;;;26.23
72054;BMP280;59918;51.280;7.950;2022-10-16T11:34:02;98048.81;;;24.30
72054;BMP280;59918;51.280;7.950;2022-10-16T11:36:40;98058.72;;;22.99
72054;BMP280;59918;51.280;7.950;2022-10-16T11:42:10;98045.34;;;24.35
72054;BMP280;59918;51.280;7.950;2022-10-16T11:49:57;98018.16;;;27.31
72054;BMP280;59918;51.280;7.950;2022-10-16T11:55:37;98001.56;;;30.66
72054;BMP280;59918;51.280;7.950;2022-10-16T12:08:58;98002.75;;;32.43
72054;BMP280;59918;51.280;7.950;2022-10-16T12:11:36;97992.19;;;33.62
72054;BMP280;59918;51.280;7.950;2022-10-16T12:19:23;97988.63;;;34.26
72054;BMP280;59918;51.280;7.950;2022-10-16T12:21:50;97991.34;;;34.45
72054;BMP280;59918;51.280;7.950;2022-10-16T12:26:56;97997.84;;;34.28
72054;BMP280;59918;51.280;7.950;2022-10-16T12:31:53;98002.47;;;32.75
72054;BMP280;59918;51.280;7.950;2022-10-16T12:34:28;98010.28;;;30.67
72054;BMP280;59918;51.280;7.950;2022-10-16T12:36:55;98014.44;;;29.58
72054;BMP280;59918;51.280;7.950;2022-10-16T12:39:24;98012.16;;;30.66
72054;BMP280;59918;51.280;7.950;2022-10-16T12:42:01;98017.72;;;31.05
72054;BMP280;59918;51.280;7.950;2022-10-16T12:44:32;98014.28;;;29.26
72054;BMP280;59918;51.280;7.950;2022-10-16T12:46:57;98031.63;;;27.21
72054;BMP280;59918;51.280;7.950;2022-10-16T12:51:56;98032.38;;;25.06
72054;BMP280;59918;51.280;7.950;2022-10-16T12:54:27;98044.31;;;24.49
72054;BMP280;59918;51.280;7.950;2022-10-16T13:00:03;98035.41;;;24.82
72054;BMP280;59918;51.280;7.950;2022-10-16T13:05:26;98003.28;;;32.48
72054;BMP280;59918;51.280;7.950;2022-10-16T13:08:35;98000.16;;;34.86
72054;BMP280;59918;51.280;7.950;2022-10-16T13:21:33;98003.47;;;36.82
72054;BMP280;59918;51.280;7.950;2022-10-16T13:29:42;98046.00;;;30.09
72054;BMP280;59918;51.280;7.950;2022-10-16T13:32:09;98043.97;;;28.86
72054;BMP280;59918;51.280;7.950;2022-10-16T13:34:47;98031.19;;;31.44
72054;BMP280;59918;51.280;7.950;2022-10-16T13:37:23;98010.34;;;35.22
72054;BMP280;59918;51.280;7.950;2022-10-16T13:39:48;97992.94;;;37.02
72054;BMP280;59918;51.280;7.950;2022-10-16T13:42:21;97993.47;;;37.61
72054;BMP280;59918;51.280;7.950;2022-10-16T13:44:50;97989.28;;;38.27
72054;BMP280;59918;51.280;7.950;2022-10-16T13:47:21;97998.72;;;38.88
72054;BMP280;59918;51.280;7.950;2022-10-16T13:49:47;97988.75;;;40.03
72054;BMP280;59918;51.280;7.950;2022-10-16T13:52:23;97979.44;;;40.21
72054;BMP280;59918;51.280;7.950;2022-10-16T13:54:48;97997.84;;;38.46
72054;BMP280;59918;51.280;7.950;2022-10-16T13:57:15;98002.66;;;35.90
72054;BMP280;59918;51.280;7.950;2022-10-16T13:59:41;98002.84;;;35.08
72054;BMP280;59918;51.280;7.950;2022-10-16T14:02:25;98011.41;;;35.17
72054;BMP280;59918;51.280;7.950;2022-10-16T14:04:51;98008.84;;;35.94
72054;BMP280;59918;51.280;7.950;2022-10-16T14:07:31;98011.56;;;36.88
72054;BMP280;59918;51.280;7.950;2022-10-16T14:10:04;98001.81;;;37.49
72054;BMP280;59918;51.280;7.950;2022-10-16T14:12:30;98005.53;;;36.98
72054;BMP280;59918;51.280;7.950;2022-10-16T14:14:57;98019.50;;;36.78
72054;BMP280;59918;51.280;7.950;2022-10-16T14:17:24;98010.19;;;36.65
72054;BMP280;59918;51.280;7.950;2022-10-16T14:19:53;98005.59;;;37.02
72054;BMP280;59918;51.280;7.950;2022-10-16T14:24:51;98033.06;;;31.79
72054;BMP280;59918;51.280;7.950;2022-10-16T14:32:32;98039.00;;;26.59
72054;BMP280;59918;51.280;7.950;2022-10-16T14:34:57;98046.75;;;25.80
72054;BMP280;59918;51.280;7.950;2022-10-16T14:37:27;98053.13;;;25.08
72054;BMP280;59918;51.280;7.950;2022-10-16T14:39:54;98053.84;;;24.63
72054;BMP280;59918;51.280;7.950;2022-10-16T14:42:22;98057.25;;;24.27
72054;BMP280;59918;51.280;7.950;2022-10-16T14:44:48;98062.28;;;23.82
72054;BMP280;59918;51.280;7.950;2022-10-16T14:47:16;98064.03;;;23.45
72054;BMP280;59918;51.280;7.950;2022-10-16T14:49:42;98062.66;;;23.25
72054;BMP280;59918;51.280;7.950;2022-10-16T14:52:12;98068.84;;;23.10
72054;BMP280;59918;51.280;7.950;2022-10-16T14:54:37;98065.63;;;22.85
72054;BMP280;59918;51.280;7.950;2022-10-16T14:57:03;98064.41;;;22.73
72054;BMP280;59918;51.280;7.950;2022-10-16T14:59:37;98062.94;;;22.57
72054;BMP280;59918;51.280;7.950;2022-10-16T15:02:20;98058.41;;;22.30
72054;BMP280;59918;51.280;7.950;2022-10-16T15:04:48;98057.19;;;22.17
72054;BMP280;59918;51.280;7.950;2022-10-16T15:07:13;98049.41;;;21.93
72054;BMP280;59918;51.280;7.950;2022-10-16T15:09:39;98053.69;;;21.74
72054;BMP280;59918;51.280;7.950;2022-10-16T15:12:04;98057.13;;;21.64
72054;BMP280;59918;51.280;7.950;2022-10-16T15:14:29;98059.00;;;21.54
72054;BMP280;59918;51.280;7.950;2022-10-16T15:16:55;98057.44;;;21.33
72054;BMP280;59918;51.280;7.950;2022-10-16T15:19:20;98059.78;;;21.30
72054;BMP280;59918;51.280;7.950;2022-10-16T15:21:45;98054.38;;;21.94
72054;BMP280;59918;51.280;7.950;2022-10-16T15:24:14;98046.44;;;22.57
72054;BMP280;59918;51.280;7.950;2022-10-16T15:26:39;98050.59;;;22.63
72054;BMP280;59918;51.280;7.950;2022-10-16T15:29:05;98043.34;;;22.83
72054;BMP280;59918;51.280;7.950;2022-10-16T15:31:31;98047.97;;;22.63
72054;BMP280;59918;51.280;7.950;2022-10-16T15:33:56;98055.06;;;22.24
72054;BMP280;59918;51.280;7.950;2022-10-16T15:36:26;98060.19;;;21.86
72054;BMP280;59918;51.280;7.950;2022-10-16T15:38:54;98045.66;;;21.51
72054;BMP280;59918;51.280;7.950;2022-10-16T15:41:20;98048.06;;;21.18
72054;BMP280;59918;51.280;7.950;2022-10-16T15:43:48;98060.13;;;20.94
72054;BMP280;59918;51.280;7.950;2022-10-16T15:46:14;98062.47;;;20.71
72054;BMP280;59918;51.280;7.950;2022-10-16T15:48:39;98067.41;;;20.52
72054;BMP280;59918;51.280;7.950;2022-10-16T15:51:06;98067.66;;;20.36
72054;BMP280;59918;51.280;7.950;2022-10-16T15:53:31;98069.13;;;20.12
72054;BMP280;59918;51.280;7.950;2022-10-16T15:55:57;98071.72;;;19.98
72054;BMP280;59918;51.280;7.950;2022-10-16T15:58:22;98064.63;;;19.83
72054;BMP280;59918;51.280;7.950;2022-10-16T16:00:58;98059.56;;;19.67
72054;BMP280;59918;51.280;7.950;2022-10-16T16:03:23;98067.03;;;19.54
72054;BMP280;59918;51.280;7.950;2022-10-16T16:05:49;98069.34;;;19.40
72054;BMP280;59918;51.280;7.950;2022-10-16T16:08:14;98070.81;;;19.27
72054;BMP280;59918;51.280;7.950;2022-10-16T16:10:39;98071.31;;;19.19
72054;BMP280;59918;51.280;7.950;2022-10-16T16:13:04;98078.53;;;19.07
72054;BMP280;59918;51.280;7.950;2022-10-16T16:15:30;98084.44;;;18.98
72054;BMP280;59918;51.280;7.950;2022-10-16T16:17:55;98079.13;;;18.88
72054;BMP280;59918;51.280;7.950;2022-10-16T16:20:20;98082.13;;;18.75
72054;BMP280;59918;51.280;7.950;2022-10-16T16:22:45;98076.25;;;18.58